Kristin D — C6XA6 — position and weather

sailwx.info

Track history (hours):
 
Tides and Currents Weather Stations Pressure Air Temp Water Temp Dewpoint Dewpoint Depression Visibility Wind Speed Wind Dir Waves Ship Positions

Kristin D

Last reported at 2016-Jul-26 07:24 UTC. Time now 2016-Jul-26 08:26 UTC.
Position N 54°13' E 012°01'.

Length 90 m; draft 3.7 m.

Type: Cargo ship. MMSI: 311003700.

Date/timePositionNaut miles runAvg speedWind from/ knotsBaromVisibWave heightAir tempDewpointWater temp
2016-Jul-26 07:24N 54°13' E 012°01'0 0.0
2016-Jul-26 06:33N 54°13' E 012°01'0 0.0
2016-Jul-26 05:24N 54°13' E 012°01'0 0.0
2016-Jul-26 03:30N 54°13' E 012°01'0 0.0
2016-Jul-26 02:18N 54°13' E 012°01'0 0.0
2016-Jul-26 01:33N 54°13' E 012°01'0 0.0
2016-Jul-26 00:33N 54°13' E 012°01'0 0.0
2016-Jul-25 23:33N 54°13' E 012°01'0 0.0
2016-Jul-25 22:21N 54°13' E 012°01'0 0.0
2016-Jul-25 21:33N 54°13' E 012°01'0 0.0
2016-Jul-25 20:33N 54°13' E 012°01'0 0.0
2016-Jul-25 19:32N 54°13' E 012°01'0 0.0
2016-Jul-25 17:23N 54°13' E 012°01'0 0.1
2016-Jul-25 16:32N 54°13' E 012°00'0 0.0
2016-Jul-25 15:32N 54°13' E 012°00'0 0.0
2016-Jul-25 14:32N 54°13' E 012°00'0 0.0
2016-Jul-25 13:32N 54°13' E 012°00'0 0.0
2016-Jul-25 12:32N 54°13' E 012°00'0 0.0
2016-Jul-25 11:32N 54°13' E 012°00'0 0.0
2016-Jul-25 10:29N 54°13' E 012°00'0 0.0
2016-Jul-25 09:32N 54°13' E 012°01'0 0.1
2016-Jul-25 08:32N 54°13' E 012°00'0 0.0
2016-Jul-25 07:32N 54°13' E 012°00'0 0.0
2016-Jul-25 06:32N 54°13' E 012°00'0 0.0
2016-Jul-25 05:29N 54°13' E 012°00'0 0.0
2016-Jul-25 04:26N 54°13' E 012°00'0 0.0
2016-Jul-25 03:32N 54°13' E 012°00'0 0.0
2016-Jul-25 02:32N 54°13' E 012°00'0 0.0
2016-Jul-25 01:32N 54°13' E 012°00'0 0.0
2016-Jul-25 00:32N 54°13' E 012°00'0 0.0
2016-Jul-24 23:32N 54°13' E 012°00'0 0.0
2016-Jul-24 22:32N 54°13' E 012°00'0 0.0
2016-Jul-24 21:32N 54°13' E 012°00'0 0.0
2016-Jul-24 20:20N 54°13' E 012°00'0 0.0
2016-Jul-24 19:32N 54°13' E 012°00'0 0.0
2016-Jul-24 18:26N 54°13' E 012°00'0 0.0
2016-Jul-24 17:32N 54°13' E 012°00'0 0.0
2016-Jul-24 16:32N 54°13' E 012°00'0 0.0
2016-Jul-24 15:32N 54°13' E 012°00'0 0.0
2016-Jul-24 14:32N 54°13' E 012°00'0 0.0
2016-Jul-24 13:32N 54°13' E 012°00'0 0.0
2016-Jul-24 12:32N 54°13' E 012°00'0 0.0
2016-Jul-24 11:26N 54°13' E 012°00'0 0.0
2016-Jul-24 10:32N 54°13' E 012°00'0 0.0
2016-Jul-24 09:05N 54°13' E 012°00'0 0.0
2016-Jul-24 08:32N 54°13' E 012°00'0 0.0
2016-Jul-24 07:31N 54°13' E 012°00'0 0.0
2016-Jul-24 06:31N 54°13' E 012°00'0 0.0
2016-Jul-24 05:31N 54°13' E 012°00'0 0.0
2016-Jul-24 04:31N 54°13' E 012°00'0 0.0
2016-Jul-24 03:31N 54°13' E 012°00'0 0.0
2016-Jul-24 02:31N 54°13' E 012°00'0 0.0
2016-Jul-24 01:31N 54°13' E 012°00'0 0.0
2016-Jul-24 00:31N 54°13' E 012°00'0 0.0
2016-Jul-23 23:31N 54°13' E 012°00'0 0.0
2016-Jul-23 22:31N 54°13' E 012°00'0 0.0
2016-Jul-23 21:31N 54°13' E 012°00'0 0.0
2016-Jul-23 20:31N 54°13' E 012°00'0 0.0
2016-Jul-23 19:31N 54°13' E 012°00'0 0.0
2016-Jul-23 18:31N 54°13' E 012°00'0 0.0
2016-Jul-23 17:31N 54°13' E 012°00'0 0.0
2016-Jul-23 16:31N 54°13' E 012°00'0 0.0
2016-Jul-23 15:31N 54°13' E 012°00'0 0.0
2016-Jul-23 14:31N 54°13' E 012°00'0 0.0
2016-Jul-23 13:31N 54°13' E 012°00'0 0.0
2016-Jul-23 12:31N 54°13' E 012°00'0 0.0
2016-Jul-23 11:31N 54°13' E 012°00'0 0.0
2016-Jul-23 10:31N 54°13' E 012°00'0 0.0
2016-Jul-23 09:31N 54°13' E 012°00'0 0.0
2016-Jul-23 08:31N 54°13' E 012°00'0 0.0
2016-Jul-23 07:31N 54°13' E 012°00'0 0.0
2016-Jul-23 06:31N 54°13' E 012°00'8 3.9
2016-Jul-23 04:33N 54°21' E 011°60'7 7.2
2016-Jul-23 03:33N 54°27' E 012°06'7 6.6
2016-Jul-23 02:33N 54°32' E 012°13'7 6.5
2016-Jul-23 01:33N 54°37' E 012°20'8 7.6
2016-Jul-23 00:33N 54°39' E 012°32'8 7.5
2016-Jul-22 23:33N 54°41' E 012°45'8 7.8
2016-Jul-22 22:33N 54°41' E 012°59'8 7.8
2016-Jul-22 21:33N 54°42' E 013°12'7 7.3
2016-Jul-22 20:33N 54°43' E 013°24'7 6.6
2016-Jul-22 19:33N 54°40' E 013°35'9 8.5
2016-Jul-22 18:33N 54°34' E 013°45'9 8.7
2016-Jul-22 17:33N 54°27' E 013°53'9 8.7
2016-Jul-22 16:33N 54°19' E 013°59'9 8.9
2016-Jul-22 15:33N 54°11' E 014°06'9 9.2
2016-Jul-22 14:33N 54°02' E 014°12'1 1.2
2016-Jul-22 13:33N 54°03' E 014°10'1211.9
2016-Jul-22 12:33N 54°11' E 013°56'7 6.9
2016-Jul-22 11:33N 54°09' E 013°45'6 5.6
2016-Jul-22 10:32N 54°03' E 013°47'0 0.2
2016-Jul-22 09:33N 54°03' E 013°47'0 0.0
2016-Jul-22 08:33N 54°03' E 013°47'0 0.0
2016-Jul-22 07:33N 54°03' E 013°47'0 0.0
2016-Jul-22 04:33N 54°03' E 013°47'0 0.0
2016-Jul-22 03:27N 54°03' E 013°47'0 0.0
2016-Jul-22 02:33N 54°03' E 013°47'0 0.0
2016-Jul-22 01:30N 54°03' E 013°47'0 0.0
2016-Jul-22 00:33N 54°03' E 013°47'0 0.0
2016-Jul-21 23:27N 54°03' E 013°47'0 0.0
2016-Jul-21 22:27N 54°03' E 013°47'0 0.0
2016-Jul-21 21:24N 54°03' E 013°47'0 0.0
2016-Jul-21 20:33N 54°03' E 013°47'0 0.0
2016-Jul-21 19:33N 54°03' E 013°47'0 0.0
2016-Jul-21 18:33N 54°03' E 013°47'0 0.0
2016-Jul-21 17:33N 54°03' E 013°47'0 0.0
2016-Jul-21 16:33N 54°03' E 013°47'0 0.0
2016-Jul-21 15:33N 54°03' E 013°47'0 0.0
2016-Jul-21 14:33N 54°03' E 013°47'0 0.0
2016-Jul-21 13:33N 54°03' E 013°47'0 0.0
2016-Jul-21 12:33N 54°03' E 013°47'0 0.0
2016-Jul-21 11:32N 54°03' E 013°47'0 0.0
2016-Jul-21 10:26N 54°03' E 013°47'0 0.0
2016-Jul-21 09:32N 54°03' E 013°47'0 0.0
2016-Jul-21 08:32N 54°03' E 013°47'0 0.0
2016-Jul-21 07:32N 54°03' E 013°47'0 0.0
2016-Jul-21 06:32N 54°03' E 013°47'0 0.0
2016-Jul-21 05:32N 54°03' E 013°47'0 0.0
2016-Jul-21 04:32N 54°03' E 013°47'0 0.0
2016-Jul-21 03:32N 54°03' E 013°47'0 0.0
2016-Jul-21 02:32N 54°03' E 013°47'0 0.0
2016-Jul-21 01:32N 54°03' E 013°47'0 0.0
2016-Jul-21 00:32N 54°03' E 013°47'0 0.0
2016-Jul-20 23:32N 54°03' E 013°47'0 0.0
2016-Jul-20 22:32N 54°03' E 013°47'0 0.0
2016-Jul-20 21:32N 54°03' E 013°47'0 0.0
2016-Jul-20 20:32N 54°03' E 013°47'0 0.0
2016-Jul-20 19:32N 54°03' E 013°47'0 0.0
2016-Jul-20 18:08N 54°03' E 013°47'0 0.0
2016-Jul-20 17:32N 54°03' E 013°47'0 0.0
2016-Jul-20 14:32N 54°03' E 013°47'0 0.0
2016-Jul-20 12:14N 54°03' E 013°47'0 0.0
2016-Jul-20 11:32N 54°03' E 013°47'0 0.0
2016-Jul-20 10:08N 54°03' E 013°47'0 0.0
2016-Jul-20 09:26N 54°03' E 013°47'0 0.0
2016-Jul-20 08:32N 54°03' E 013°47'0 0.0
2016-Jul-20 07:14N 54°03' E 013°47'0 0.0
2016-Jul-20 04:32N 54°03' E 013°47'0 0.0
2016-Jul-20 03:32N 54°03' E 013°47'0 0.0
2016-Jul-20 01:29N 54°03' E 013°47'0 0.0
2016-Jul-20 00:32N 54°03' E 013°47'0 0.0
2016-Jul-19 23:31N 54°03' E 013°47'0 0.0
2016-Jul-19 22:25N 54°03' E 013°47'0 0.0
2016-Jul-19 19:25N 54°03' E 013°47'0 0.0
2016-Jul-19 16:31N 54°03' E 013°47'0 0.0
2016-Jul-19 15:31N 54°03' E 013°47'0 0.0
2016-Jul-19 14:13N 54°03' E 013°47'0 0.0
2016-Jul-19 13:13N 54°03' E 013°47'0 0.0
2016-Jul-19 12:31N 54°03' E 013°47'0 0.0
2016-Jul-19 11:31N 54°03' E 013°47'2 1.7
2016-Jul-19 10:32N 54°05' E 013°48'66 5.8
2016-Jul-18 23:13N 55°06' E 013°07'5 8.4
2016-Jul-18 22:34N 55°10' E 013°00'8 8.5
2016-Jul-18 21:34N 55°15' E 012°49'8 7.5
2016-Jul-18 20:33N 55°20' E 012°38'8 8.1
2016-Jul-18 19:34N 55°28' E 012°41'9 8.7
2016-Jul-18 18:33N 55°36' E 012°42'9 9.0
2016-Jul-18 17:34N 55°45' E 012°41'8 8.1
2016-Jul-18 16:34N 55°53' E 012°39'9 9.1
2016-Jul-18 15:33N 56°02' E 012°38'9 8.9
2016-Jul-18 14:34N 56°09' E 012°27'9 9.4
2016-Jul-18 13:33N 56°14' E 012°13'12 9.0
2016-Jul-18 12:14N 56°24' E 012°00'7 9.9
2016-Jul-18 11:33N 56°30' E 011°58'1010.0
2016-Jul-18 10:33N 56°40' E 011°54'10 9.7
2016-Jul-18 09:33N 56°49' E 011°49'9 9.4
2016-Jul-18 08:33N 56°58' E 011°44'1010.0
2016-Jul-18 07:33N 57°07' E 011°38'10 9.8
2016-Jul-18 06:33N 57°17' E 011°32'10 9.8
2016-Jul-18 05:33N 57°26' E 011°26'10 9.8
2016-Jul-18 04:34N 57°33' E 011°13'1211.7
2016-Jul-18 03:33N 57°41' E 010°57'1211.4
2016-Jul-18 02:31N 57°47' E 010°38'6011.3
2016-Jul-17 21:11N 57°58' E 008°47'8 9.9
2016-Jul-17 20:22N 57°60' E 008°32'8 9.5
2016-Jul-17 19:33N 58°01' E 008°18'  
Track history (hours):
 
Tides and Currents Weather Stations Pressure Air Temp Water Temp Dewpoint Dewpoint Depression Visibility Wind Speed Wind Dir Waves Ship Positions

Kristin D

Last reported at 2016-Jul-26 07:24 UTC. Time now 2016-Jul-26 08:26 UTC.
Position N 54°13' E 012°01'.

Length 90 m; draft 3.7 m.

Type: Cargo ship. MMSI: 311003700.

Date/timePositionNaut miles runAvg speedWind from/ knotsBaromVisibWave heightAir tempDewpointWater temp
2016-Jul-26 07:24N 54°13' E 012°01'0 0.0
2016-Jul-26 06:33N 54°13' E 012°01'0 0.0
2016-Jul-26 05:24N 54°13' E 012°01'0 0.0
2016-Jul-26 03:30N 54°13' E 012°01'0 0.0
2016-Jul-26 02:18N 54°13' E 012°01'0 0.0
2016-Jul-26 01:33N 54°13' E 012°01'0 0.0
2016-Jul-26 00:33N 54°13' E 012°01'0 0.0
2016-Jul-25 23:33N 54°13' E 012°01'0 0.0
2016-Jul-25 22:21N 54°13' E 012°01'0 0.0
2016-Jul-25 21:33N 54°13' E 012°01'0 0.0
2016-Jul-25 20:33N 54°13' E 012°01'0 0.0
2016-Jul-25 19:32N 54°13' E 012°01'0 0.0
2016-Jul-25 17:23N 54°13' E 012°01'0 0.1
2016-Jul-25 16:32N 54°13' E 012°00'0 0.0
2016-Jul-25 15:32N 54°13' E 012°00'0 0.0
2016-Jul-25 14:32N 54°13' E 012°00'0 0.0
2016-Jul-25 13:32N 54°13' E 012°00'0 0.0
2016-Jul-25 12:32N 54°13' E 012°00'0 0.0
2016-Jul-25 11:32N 54°13' E 012°00'0 0.0
2016-Jul-25 10:29N 54°13' E 012°00'0 0.0
2016-Jul-25 09:32N 54°13' E 012°01'0 0.1
2016-Jul-25 08:32N 54°13' E 012°00'0 0.0
2016-Jul-25 07:32N 54°13' E 012°00'0 0.0
2016-Jul-25 06:32N 54°13' E 012°00'0 0.0
2016-Jul-25 05:29N 54°13' E 012°00'0 0.0
2016-Jul-25 04:26N 54°13' E 012°00'0 0.0
2016-Jul-25 03:32N 54°13' E 012°00'0 0.0
2016-Jul-25 02:32N 54°13' E 012°00'0 0.0
2016-Jul-25 01:32N 54°13' E 012°00'0 0.0
2016-Jul-25 00:32N 54°13' E 012°00'0 0.0
2016-Jul-24 23:32N 54°13' E 012°00'0 0.0
2016-Jul-24 22:32N 54°13' E 012°00'0 0.0
2016-Jul-24 21:32N 54°13' E 012°00'0 0.0
2016-Jul-24 20:20N 54°13' E 012°00'0 0.0
2016-Jul-24 19:32N 54°13' E 012°00'0 0.0
2016-Jul-24 18:26N 54°13' E 012°00'0 0.0
2016-Jul-24 17:32N 54°13' E 012°00'0 0.0
2016-Jul-24 16:32N 54°13' E 012°00'0 0.0
2016-Jul-24 15:32N 54°13' E 012°00'0 0.0
2016-Jul-24 14:32N 54°13' E 012°00'0 0.0
2016-Jul-24 13:32N 54°13' E 012°00'0 0.0
2016-Jul-24 12:32N 54°13' E 012°00'0 0.0
2016-Jul-24 11:26N 54°13' E 012°00'0 0.0
2016-Jul-24 10:32N 54°13' E 012°00'0 0.0
2016-Jul-24 09:05N 54°13' E 012°00'0 0.0
2016-Jul-24 08:32N 54°13' E 012°00'0 0.0
2016-Jul-24 07:31N 54°13' E 012°00'0 0.0
2016-Jul-24 06:31N 54°13' E 012°00'0 0.0
2016-Jul-24 05:31N 54°13' E 012°00'0 0.0
2016-Jul-24 04:31N 54°13' E 012°00'0 0.0
2016-Jul-24 03:31N 54°13' E 012°00'0 0.0
2016-Jul-24 02:31N 54°13' E 012°00'0 0.0
2016-Jul-24 01:31N 54°13' E 012°00'0 0.0
2016-Jul-24 00:31N 54°13' E 012°00'0 0.0
2016-Jul-23 23:31N 54°13' E 012°00'0 0.0
2016-Jul-23 22:31N 54°13' E 012°00'0 0.0
2016-Jul-23 21:31N 54°13' E 012°00'0 0.0
2016-Jul-23 20:31N 54°13' E 012°00'0 0.0
2016-Jul-23 19:31N 54°13' E 012°00'0 0.0
2016-Jul-23 18:31N 54°13' E 012°00'0 0.0
2016-Jul-23 17:31N 54°13' E 012°00'0 0.0
2016-Jul-23 16:31N 54°13' E 012°00'0 0.0
2016-Jul-23 15:31N 54°13' E 012°00'0 0.0
2016-Jul-23 14:31N 54°13' E 012°00'0 0.0
2016-Jul-23 13:31N 54°13' E 012°00'0 0.0
2016-Jul-23 12:31N 54°13' E 012°00'0 0.0
2016-Jul-23 11:31N 54°13' E 012°00'0 0.0
2016-Jul-23 10:31N 54°13' E 012°00'0 0.0
2016-Jul-23 09:31N 54°13' E 012°00'0 0.0
2016-Jul-23 08:31N 54°13' E 012°00'0 0.0
2016-Jul-23 07:31N 54°13' E 012°00'0 0.0
2016-Jul-23 06:31N 54°13' E 012°00'8 3.9
2016-Jul-23 04:33N 54°21' E 011°60'7 7.2
2016-Jul-23 03:33N 54°27' E 012°06'7 6.6
2016-Jul-23 02:33N 54°32' E 012°13'7 6.5
2016-Jul-23 01:33N 54°37' E 012°20'8 7.6
2016-Jul-23 00:33N 54°39' E 012°32'8 7.5
2016-Jul-22 23:33N 54°41' E 012°45'8 7.8
2016-Jul-22 22:33N 54°41' E 012°59'8 7.8
2016-Jul-22 21:33N 54°42' E 013°12'7 7.3
2016-Jul-22 20:33N 54°43' E 013°24'7 6.6
2016-Jul-22 19:33N 54°40' E 013°35'9 8.5
2016-Jul-22 18:33N 54°34' E 013°45'9 8.7
2016-Jul-22 17:33N 54°27' E 013°53'9 8.7
2016-Jul-22 16:33N 54°19' E 013°59'9 8.9
2016-Jul-22 15:33N 54°11' E 014°06'9 9.2
2016-Jul-22 14:33N 54°02' E 014°12'1 1.2
2016-Jul-22 13:33N 54°03' E 014°10'1211.9
2016-Jul-22 12:33N 54°11' E 013°56'7 6.9
2016-Jul-22 11:33N 54°09' E 013°45'6 5.6
2016-Jul-22 10:32N 54°03' E 013°47'0 0.2
2016-Jul-22 09:33N 54°03' E 013°47'0 0.0
2016-Jul-22 08:33N 54°03' E 013°47'0 0.0
2016-Jul-22 07:33N 54°03' E 013°47'0 0.0
2016-Jul-22 04:33N 54°03' E 013°47'0 0.0
2016-Jul-22 03:27N 54°03' E 013°47'0 0.0
2016-Jul-22 02:33N 54°03' E 013°47'0 0.0
2016-Jul-22 01:30N 54°03' E 013°47'0 0.0
2016-Jul-22 00:33N 54°03' E 013°47'0 0.0
2016-Jul-21 23:27N 54°03' E 013°47'0 0.0
2016-Jul-21 22:27N 54°03' E 013°47'0 0.0
2016-Jul-21 21:24N 54°03' E 013°47'0 0.0
2016-Jul-21 20:33N 54°03' E 013°47'0 0.0
2016-Jul-21 19:33N 54°03' E 013°47'0 0.0
2016-Jul-21 18:33N 54°03' E 013°47'0 0.0
2016-Jul-21 17:33N 54°03' E 013°47'0 0.0
2016-Jul-21 16:33N 54°03' E 013°47'0 0.0
2016-Jul-21 15:33N 54°03' E 013°47'0 0.0
2016-Jul-21 14:33N 54°03' E 013°47'0 0.0
2016-Jul-21 13:33N 54°03' E 013°47'0 0.0
2016-Jul-21 12:33N 54°03' E 013°47'0 0.0
2016-Jul-21 11:32N 54°03' E 013°47'0 0.0
2016-Jul-21 10:26N 54°03' E 013°47'0 0.0
2016-Jul-21 09:32N 54°03' E 013°47'0 0.0
2016-Jul-21 08:32N 54°03' E 013°47'0 0.0
2016-Jul-21 07:32N 54°03' E 013°47'0 0.0
2016-Jul-21 06:32N 54°03' E 013°47'0 0.0
2016-Jul-21 05:32N 54°03' E 013°47'0 0.0
2016-Jul-21 04:32N 54°03' E 013°47'0 0.0
2016-Jul-21 03:32N 54°03' E 013°47'0 0.0
2016-Jul-21 02:32N 54°03' E 013°47'0 0.0
2016-Jul-21 01:32N 54°03' E 013°47'0 0.0
2016-Jul-21 00:32N 54°03' E 013°47'0 0.0
2016-Jul-20 23:32N 54°03' E 013°47'0 0.0
2016-Jul-20 22:32N 54°03' E 013°47'0 0.0
2016-Jul-20 21:32N 54°03' E 013°47'0 0.0
2016-Jul-20 20:32N 54°03' E 013°47'0 0.0
2016-Jul-20 19:32N 54°03' E 013°47'0 0.0
2016-Jul-20 18:08N 54°03' E 013°47'0 0.0
2016-Jul-20 17:32N 54°03' E 013°47'0 0.0
2016-Jul-20 14:32N 54°03' E 013°47'0 0.0
2016-Jul-20 12:14N 54°03' E 013°47'0 0.0
2016-Jul-20 11:32N 54°03' E 013°47'0 0.0
2016-Jul-20 10:08N 54°03' E 013°47'0 0.0
2016-Jul-20 09:26N 54°03' E 013°47'0 0.0
2016-Jul-20 08:32N 54°03' E 013°47'0 0.0
2016-Jul-20 07:14N 54°03' E 013°47'0 0.0
2016-Jul-20 04:32N 54°03' E 013°47'0 0.0
2016-Jul-20 03:32N 54°03' E 013°47'0 0.0
2016-Jul-20 01:29N 54°03' E 013°47'0 0.0
2016-Jul-20 00:32N 54°03' E 013°47'0 0.0
2016-Jul-19 23:31N 54°03' E 013°47'0 0.0
2016-Jul-19 22:25N 54°03' E 013°47'0 0.0
2016-Jul-19 19:25N 54°03' E 013°47'0 0.0
2016-Jul-19 16:31N 54°03' E 013°47'0 0.0
2016-Jul-19 15:31N 54°03' E 013°47'0 0.0
2016-Jul-19 14:13N 54°03' E 013°47'0 0.0
2016-Jul-19 13:13N 54°03' E 013°47'0 0.0
2016-Jul-19 12:31N 54°03' E 013°47'0 0.0
2016-Jul-19 11:31N 54°03' E 013°47'2 1.7
2016-Jul-19 10:32N 54°05' E 013°48'66 5.8
2016-Jul-18 23:13N 55°06' E 013°07'5 8.4
2016-Jul-18 22:34N 55°10' E 013°00'8 8.5
2016-Jul-18 21:34N 55°15' E 012°49'8 7.5
2016-Jul-18 20:33N 55°20' E 012°38'8 8.1
2016-Jul-18 19:34N 55°28' E 012°41'9 8.7
2016-Jul-18 18:33N 55°36' E 012°42'9 9.0
2016-Jul-18 17:34N 55°45' E 012°41'8 8.1
2016-Jul-18 16:34N 55°53' E 012°39'9 9.1
2016-Jul-18 15:33N 56°02' E 012°38'9 8.9
2016-Jul-18 14:34N 56°09' E 012°27'9 9.4
2016-Jul-18 13:33N 56°14' E 012°13'12 9.0
2016-Jul-18 12:14N 56°24' E 012°00'7 9.9
2016-Jul-18 11:33N 56°30' E 011°58'1010.0
2016-Jul-18 10:33N 56°40' E 011°54'10 9.7
2016-Jul-18 09:33N 56°49' E 011°49'9 9.4
2016-Jul-18 08:33N 56°58' E 011°44'1010.0
2016-Jul-18 07:33N 57°07' E 011°38'10 9.8
2016-Jul-18 06:33N 57°17' E 011°32'10 9.8
2016-Jul-18 05:33N 57°26' E 011°26'10 9.8
2016-Jul-18 04:34N 57°33' E 011°13'1211.7
2016-Jul-18 03:33N 57°41' E 010°57'1211.4
2016-Jul-18 02:31N 57°47' E 010°38'6011.3
2016-Jul-17 21:11N 57°58' E 008°47'8 9.9
2016-Jul-17 20:22N 57°60' E 008°32'8 9.5
2016-Jul-17 19:33N 58°01' E 008°18'  

Dump ship's entire track history